createdAt,value
2018-12-13T00:00:59.646Z,95.89
2018-12-13T00:01:59.637Z,95.89
2018-12-13T00:02:59.625Z,95.84
2018-12-13T00:03:59.614Z,95.74
2018-12-13T00:04:59.603Z,95.64
2018-12-13T00:05:59.592Z,95.64
2018-12-13T00:06:59.584Z,95.64
2018-12-13T00:07:59.571Z,95.74
2018-12-13T00:08:59.562Z,95.53
2018-12-13T00:09:59.552Z,95.33
2018-12-13T00:10:59.539Z,95.22
2018-12-13T00:11:59.532Z,95.22
2018-12-13T00:12:59.518Z,95.22
2018-12-13T00:13:59.507Z,95.22
2018-12-13T00:14:59.498Z,95.12
2018-12-13T00:15:59.498Z,95.12
2018-12-13T00:16:59.475Z,95.12
2018-12-13T00:17:59.464Z,95.01
2018-12-13T00:18:59.453Z,95.01
2018-12-13T00:19:59.441Z,95.12
2018-12-13T00:20:59.433Z,95.33
2018-12-13T00:21:59.423Z,95.43
2018-12-13T00:22:59.415Z,95.53
2018-12-13T00:23:59.401Z,95.64
2018-12-13T00:24:59.388Z,95.64
2018-12-13T00:25:59.376Z,95.53
2018-12-13T00:26:59.372Z,95.47
2018-12-13T00:27:59.388Z,95.26
2018-12-13T00:28:59.346Z,95.16
2018-12-13T00:29:59.334Z,95.16
2018-12-13T00:30:59.325Z,95.26
2018-12-13T00:31:59.313Z,95.37
2018-12-13T00:32:59.308Z,95.47
2018-12-13T00:33:59.290Z,95.58
2018-12-13T00:34:59.282Z,95.58
2018-12-13T00:35:59.270Z,95.68
2018-12-13T00:36:59.259Z,95.58
2018-12-13T00:37:59.252Z,95.68
2018-12-13T00:38:59.240Z,95.89
2018-12-13T00:39:59.229Z,95.99
2018-12-13T00:40:59.217Z,95.99
2018-12-13T00:41:59.208Z,95.99
2018-12-13T00:42:59.195Z,95.89
2018-12-13T00:43:59.184Z,95.99
2018-12-13T00:44:59.177Z,95.99
2018-12-13T00:45:59.162Z,95.99
2018-12-13T00:46:59.152Z,95.99
2018-12-13T00:47:59.147Z,96.14
2018-12-13T00:48:59.130Z,96.25
2018-12-13T00:49:59.117Z,96.35
2018-12-13T00:50:59.111Z,96.25
2018-12-13T00:51:59.107Z,96.14
2018-12-13T00:52:59.087Z,95.94
2018-12-13T00:53:59.074Z,96.04
2018-12-13T00:54:59.067Z,96.14
2018-12-13T00:55:59.055Z,96.08
2018-12-13T00:56:59.042Z,96.29
2018-12-13T00:57:59.033Z,96.29
2018-12-13T00:58:59.022Z,96.29
2018-12-13T00:59:59.015Z,96.19
2018-12-13T01:00:59.004Z,95.98
2018-12-13T01:01:58.997Z,95.98
2018-12-13T01:02:58.984Z,96.08
2018-12-13T01:03:58.969Z,96.19
2018-12-13T01:04:58.959Z,96.08
2018-12-13T01:05:58.962Z,96.33
2018-12-13T01:06:58.936Z,96.33
2018-12-13T01:07:58.925Z,96.44
2018-12-13T01:08:58.917Z,96.75
2018-12-13T01:09:58.905Z,96.75
2018-12-13T01:10:58.906Z,96.65
2018-12-13T01:11:58.882Z,96.54
2018-12-13T01:12:58.873Z,96.54
2018-12-13T01:13:58.866Z,96.75
2018-12-13T01:14:58.852Z,97.07
2018-12-13T01:15:58.843Z,96.96
2018-12-13T01:16:58.832Z,96.86
2018-12-13T01:17:58.829Z,96.86
2018-12-13T01:18:58.808Z,96.80
2018-12-13T01:19:58.802Z,96.80
2018-12-13T01:20:58.787Z,96.90
2018-12-13T01:21:58.779Z,97.21
2018-12-13T01:22:58.766Z,97.21
2018-12-13T01:23:58.757Z,97.15
2018-12-13T01:24:58.753Z,97.26
2018-12-13T01:25:58.736Z,97.36
2018-12-13T01:26:58.724Z,97.36
2018-12-13T01:27:58.718Z,97.57
2018-12-13T01:28:58.704Z,97.47
2018-12-13T01:29:58.695Z,97.36
2018-12-13T01:30:58.683Z,97.68
2018-12-13T01:31:58.669Z,97.78
2018-12-13T01:32:58.662Z,97.78
2018-12-13T01:33:58.660Z,97.78
2018-12-13T01:34:58.641Z,97.68
2018-12-13T01:35:58.632Z,97.57
2018-12-13T01:36:58.617Z,97.68
2018-12-13T01:37:58.610Z,97.68
2018-12-13T01:38:58.598Z,97.68
2018-12-13T01:39:58.586Z,97.68
2018-12-13T01:40:58.577Z,97.68
2018-12-13T01:41:58.565Z,97.78
2018-12-13T01:42:58.554Z,97.88
2018-12-13T01:43:58.542Z,97.84
2018-12-13T01:44:58.542Z,97.84
2018-12-13T01:45:58.520Z,97.84
2018-12-13T01:46:58.510Z,97.74
2018-12-13T01:47:58.501Z,97.63
2018-12-13T01:48:58.489Z,97.63
2018-12-13T01:49:58.480Z,97.53
2018-12-13T01:50:58.467Z,97.53
2018-12-13T01:51:58.458Z,97.43
2018-12-13T01:52:58.447Z,97.32
2018-12-13T01:53:58.437Z,97.43
2018-12-13T01:54:58.424Z,97.43
2018-12-13T01:55:58.419Z,97.32
2018-12-13T01:56:58.406Z,97.11
2018-12-13T01:57:58.392Z,97.00
2018-12-13T01:58:58.385Z,97.00
2018-12-13T01:59:58.373Z,96.90
2018-12-13T02:00:58.439Z,96.80
2018-12-13T02:01:58.350Z,96.59
2018-12-13T02:02:58.343Z,96.59
2018-12-13T02:03:58.331Z,96.84
2018-12-13T02:04:58.321Z,97.05
2018-12-13T02:05:58.309Z,97.05
2018-12-13T02:06:58.872Z,97.26
2018-12-13T02:07:58.327Z,97.57
2018-12-13T02:08:58.278Z,97.68
2018-12-13T02:09:58.265Z,97.88
2018-12-13T02:10:58.255Z,97.99
2018-12-13T02:11:58.243Z,97.99
2018-12-13T02:12:58.234Z,97.99
2018-12-13T02:13:58.224Z,97.99
2018-12-13T02:14:58.215Z,97.88
2018-12-13T02:15:58.211Z,97.78
2018-12-13T02:16:58.197Z,97.68
2018-12-13T02:17:58.181Z,97.57
2018-12-13T02:18:58.175Z,97.47
2018-12-13T02:19:58.164Z,97.36
2018-12-13T02:20:58.149Z,97.41
2018-12-13T02:21:58.141Z,97.41
2018-12-13T02:22:58.128Z,97.61
2018-12-13T02:23:58.119Z,97.51
2018-12-13T02:24:58.108Z,97.51
2018-12-13T02:25:58.094Z,97.41
2018-12-13T02:26:58.087Z,97.30
2018-12-13T02:27:58.074Z,97.20
2018-12-13T02:28:58.067Z,97.03
2018-12-13T02:29:58.059Z,97.14
2018-12-13T02:30:58.046Z,97.24
2018-12-13T02:31:58.037Z,97.66
2018-12-13T02:32:58.024Z,97.72
2018-12-13T02:33:58.012Z,97.55
2018-12-13T02:34:58.002Z,97.45
2018-12-13T02:35:57.993Z,97.45
2018-12-13T02:36:57.980Z,97.35
2018-12-13T02:37:57.972Z,97.08
2018-12-13T02:38:57.960Z,96.77
2018-12-13T02:39:57.949Z,96.66
2018-12-13T02:40:57.939Z,96.66
2018-12-13T02:41:57.929Z,96.87
2018-12-13T02:42:57.922Z,97.18
2018-12-13T02:43:58.022Z,97.18
2018-12-13T02:44:57.895Z,97.29
2018-12-13T02:45:57.899Z,97.50
2018-12-13T02:46:57.875Z,97.71
2018-12-13T02:47:57.879Z,97.60
2018-12-13T02:48:57.856Z,97.50
2018-12-13T02:49:57.847Z,97.60
2018-12-13T02:50:57.835Z,97.71
2018-12-13T02:51:57.823Z,97.91
2018-12-13T02:52:57.811Z,97.91
2018-12-13T02:53:57.816Z,97.81
2018-12-13T02:54:57.791Z,97.91
2018-12-13T02:55:57.781Z,98.23
2018-12-13T02:56:57.772Z,98.23
2018-12-13T02:57:57.758Z,98.23
2018-12-13T02:58:57.748Z,97.71
2018-12-13T02:59:57.739Z,97.39
2018-12-13T03:00:57.728Z,97.29
2018-12-13T03:01:57.719Z,97.18
2018-12-13T03:02:57.717Z,97.08
2018-12-13T03:03:57.698Z,96.97
2018-12-13T03:04:57.688Z,97.18
2018-12-13T03:05:57.677Z,97.18
2018-12-13T03:06:57.667Z,97.18
2018-12-13T03:07:57.657Z,97.29
2018-12-13T03:08:57.644Z,97.39
2018-12-13T04:44:24.359Z,90.85
2018-12-13T04:45:24.347Z,90.53
2018-12-13T04:46:24.336Z,90.63
2018-12-13T04:47:24.326Z,90.42
2018-12-13T04:48:24.316Z,90.22
2018-12-13T04:49:24.304Z,90.22
2018-12-13T04:50:24.295Z,90.42
2018-12-13T04:51:24.283Z,90.63
2018-12-13T04:52:24.271Z,91.10
2018-12-13T04:53:24.262Z,90.99
2018-12-13T04:54:24.251Z,90.88
2018-12-13T04:55:24.241Z,90.53
2018-12-13T04:56:24.228Z,90.32
2018-12-13T04:57:24.221Z,90.42
2018-12-13T04:58:24.206Z,90.42
2018-12-13T04:59:24.195Z,90.42
2018-12-13T05:00:24.185Z,90.32
2018-12-13T05:01:24.174Z,90.11
2018-12-13T05:02:24.165Z,90.22
2018-12-13T05:03:24.151Z,90.22
2018-12-13T05:04:24.143Z,89.91
2018-12-13T05:05:24.132Z,89.80
2018-12-13T05:06:24.120Z,89.48
2018-12-13T05:07:24.111Z,89.48
2018-12-13T05:08:24.098Z,89.59
2018-12-13T05:09:24.089Z,89.48
2018-12-13T05:10:24.087Z,89.17
2018-12-13T05:11:24.067Z,89.28
2018-12-13T05:12:24.055Z,89.28
2018-12-13T05:13:24.044Z,89.28
2018-12-13T05:14:24.032Z,89.38
2018-12-13T05:15:24.022Z,89.28
2018-12-13T05:16:24.012Z,89.17
2018-12-13T05:17:24.002Z,89.07
2018-12-13T05:18:23.994Z,89.07
2018-12-13T05:19:23.977Z,89.07
2018-12-13T05:20:23.967Z,89.17
2018-12-13T05:21:23.958Z,88.75
2018-12-13T05:22:23.945Z,88.44
2018-12-13T05:23:23.935Z,88.34
2018-12-13T05:24:23.924Z,88.34
2018-12-13T05:25:23.916Z,88.34
2018-12-13T05:26:23.903Z,88.03
2018-12-13T05:27:23.895Z,87.71
2018-12-13T05:28:23.887Z,87.40
2018-12-13T05:29:23.870Z,87.60
2018-12-13T05:30:23.858Z,87.19
2018-12-13T05:31:23.849Z,87.09
2018-12-13T05:32:23.837Z,87.19
2018-12-13T05:33:23.831Z,87.29
2018-12-13T05:34:23.821Z,87.19
2018-12-13T05:35:23.806Z,86.88
2018-12-13T05:36:23.792Z,86.66
2018-12-13T05:37:23.789Z,86.77
2018-12-13T05:38:23.773Z,86.56
2018-12-13T05:39:23.769Z,86.88
2018-12-13T05:40:23.752Z,86.88
2018-12-13T05:41:23.741Z,86.46
2018-12-13T05:42:23.729Z,86.46
2018-12-13T05:43:23.722Z,85.83
2018-12-13T05:44:23.715Z,85.83
2018-12-13T05:45:23.702Z,85.62
2018-12-13T05:46:23.685Z,85.94
2018-12-13T05:47:23.675Z,85.94
2018-12-13T05:48:23.672Z,85.98
2018-12-13T05:49:23.657Z,86.08
2018-12-13T05:50:23.647Z,85.72
2018-12-13T05:51:23.635Z,85.41
2018-12-13T05:52:23.621Z,85.10
2018-12-13T05:53:23.617Z,85.10
2018-12-13T05:54:23.601Z,85.31
2018-12-13T05:55:23.593Z,85.21
2018-12-13T05:56:23.578Z,85.00
2018-12-13T05:57:23.568Z,85.10
2018-12-13T05:58:23.559Z,85.00
2018-12-13T05:59:23.552Z,85.41
2018-12-13T06:00:23.534Z,86.46
2018-12-13T06:01:23.524Z,86.04
2018-12-13T06:02:23.517Z,85.83
2018-12-13T06:03:23.502Z,86.08
2018-12-13T06:04:23.491Z,86.50
2018-12-13T06:05:23.480Z,86.29
2018-12-13T06:06:23.469Z,86.08
2018-12-13T06:07:23.460Z,85.87
2018-12-13T06:08:23.448Z,85.66
2018-12-13T06:09:23.439Z,85.45
2018-12-13T06:10:23.428Z,85.66
2018-12-13T06:11:23.419Z,85.98
2018-12-13T06:12:23.406Z,85.98
2018-12-13T06:13:23.395Z,86.29
2018-12-13T06:14:23.384Z,86.08
2018-12-13T06:15:23.374Z,86.08
2018-12-13T06:16:23.363Z,86.39
2018-12-13T06:17:23.351Z,86.29
2018-12-13T06:18:23.347Z,86.18
2018-12-13T06:19:26.754Z,86.18
2018-12-13T06:20:23.321Z,85.98
2018-12-13T06:21:23.317Z,86.08
2018-12-13T06:22:23.298Z,85.98
2018-12-13T06:23:23.289Z,85.98
2018-12-13T06:24:23.275Z,86.12
2018-12-13T06:25:23.273Z,86.01
2018-12-13T06:26:23.256Z,86.29
2018-12-13T06:27:23.246Z,85.98
2018-12-13T06:28:23.237Z,86.43
2018-12-13T06:29:23.232Z,86.64
2018-12-13T06:30:23.211Z,85.91
2018-12-13T06:31:23.201Z,86.54
2018-12-13T06:32:23.190Z,86.33
2018-12-13T06:33:24.952Z,86.60
2018-12-13T06:34:23.167Z,86.39
2018-12-13T06:35:23.158Z,86.08
2018-12-13T06:36:23.146Z,85.45
2018-12-13T06:37:23.139Z,85.35
2018-12-13T06:38:23.123Z,85.66
2018-12-13T06:39:23.112Z,85.45
2018-12-13T06:40:23.106Z,85.77
2018-12-13T06:41:23.093Z,85.98
2018-12-13T06:42:23.081Z,86.18
2018-12-13T06:43:23.086Z,85.77
2018-12-13T06:44:23.059Z,85.77
2018-12-13T06:45:23.050Z,86.39
2018-12-13T06:46:23.038Z,85.87
2018-12-13T06:47:23.029Z,85.35
2018-12-13T06:48:23.016Z,85.87
2018-12-13T06:49:23.005Z,85.60
2018-12-13T06:50:22.996Z,86.12
2018-12-13T06:51:22.985Z,86.23
2018-12-13T06:52:22.973Z,86.64
2018-12-13T06:53:22.963Z,86.99
2018-12-13T06:54:22.958Z,86.68
2018-12-13T06:55:22.941Z,86.43
2018-12-13T06:56:22.933Z,86.37
2018-12-13T06:57:22.929Z,86.43
2018-12-13T06:58:22.912Z,86.12
2018-12-13T06:59:22.904Z,86.37
2018-12-13T07:00:22.891Z,86.37
2018-12-13T07:01:22.879Z,86.47
2018-12-13T07:02:22.868Z,86.05
2018-12-13T07:03:22.857Z,86.05
2018-12-13T07:04:22.846Z,86.05
2018-12-13T07:05:22.835Z,86.16
2018-12-13T07:06:22.826Z,86.16
2018-12-13T07:07:22.813Z,86.26
2018-12-13T07:08:22.807Z,86.16
2018-12-13T07:09:22.791Z,86.16
2018-12-13T07:10:22.780Z,86.37
2018-12-13T07:11:22.773Z,86.47
2018-12-13T07:12:22.759Z,86.26
2018-12-13T07:13:22.750Z,86.16
2018-12-13T07:14:22.739Z,86.37
2018-12-13T07:15:22.728Z,85.95
2018-12-13T07:16:22.721Z,85.85
2018-12-13T07:17:22.707Z,85.85
2018-12-13T07:18:22.699Z,86.05
2018-12-13T07:19:22.684Z,85.95
2018-12-13T07:20:22.673Z,85.74
2018-12-13T07:21:22.663Z,85.53
2018-12-13T07:22:22.652Z,85.11
2018-12-13T07:23:22.640Z,84.55
2018-12-13T07:24:22.634Z,84.34
2018-12-13T07:25:22.626Z,84.55
2018-12-13T07:26:22.608Z,84.34
2018-12-13T07:27:22.597Z,84.13
2018-12-13T07:28:22.585Z,84.13
2018-12-13T07:29:22.575Z,83.72
2018-12-13T07:30:22.564Z,83.09
2018-12-13T07:31:22.553Z,83.19
2018-12-13T07:32:22.551Z,83.09
2018-12-13T07:33:22.531Z,82.98
2018-12-13T07:34:22.521Z,83.30
2018-12-13T07:35:22.513Z,83.19
2018-12-13T07:36:22.501Z,83.30
2018-12-13T07:37:22.490Z,83.40
2018-12-13T07:38:22.492Z,83.09
2018-12-13T07:39:22.468Z,82.98
2018-12-13T07:40:22.457Z,83.09
2018-12-13T07:41:22.446Z,82.46
2018-12-13T07:42:22.434Z,82.25
2018-12-13T07:43:22.428Z,82.46
2018-12-13T07:44:22.416Z,82.46
2018-12-13T07:45:22.404Z,82.56
2018-12-13T07:46:22.391Z,82.36
2018-12-13T07:47:22.385Z,82.56
2018-12-13T07:48:22.371Z,82.36
2018-12-13T07:49:22.359Z,82.67
2018-12-13T07:50:22.350Z,82.56
2018-12-13T07:51:22.339Z,82.88
2018-12-13T07:52:22.326Z,82.56
2018-12-13T07:53:22.315Z,82.92
2018-12-13T07:54:22.308Z,83.23
2018-12-13T07:55:22.295Z,83.09
2018-12-13T07:56:22.285Z,82.78
2018-12-13T07:57:22.277Z,82.46
2018-12-13T07:58:22.269Z,82.25
2018-12-13T07:59:22.266Z,82.36
2018-12-13T08:00:22.241Z,82.46
2018-12-13T08:01:22.230Z,82.15
2018-12-13T08:02:22.220Z,81.94
2018-12-13T08:03:22.211Z,81.94
2018-12-13T08:04:22.200Z,82.46
2018-12-13T08:05:22.188Z,82.15
2018-12-13T08:06:22.179Z,82.04
2018-12-13T08:07:22.171Z,82.56
2018-12-13T08:08:22.156Z,82.25
2018-12-13T08:09:22.148Z,82.25
2018-12-13T08:10:22.136Z,81.62
2018-12-13T08:11:22.131Z,81.42
2018-12-13T08:12:22.112Z,81.62
2018-12-13T08:13:22.107Z,81.52
2018-12-13T08:14:22.090Z,81.17
2018-12-13T08:15:22.083Z,80.96
2018-12-13T08:16:22.070Z,80.44
2018-12-13T08:17:22.059Z,80.34
2018-12-13T08:18:22.057Z,80.75
2018-12-13T08:19:22.038Z,80.54
2018-12-13T08:20:22.034Z,80.75
2018-12-13T08:21:22.016Z,80.65
2018-12-13T08:22:22.010Z,80.75
2018-12-13T08:23:21.997Z,79.81
2018-12-13T08:24:21.990Z,79.71
2018-12-13T08:25:21.976Z,79.81
2018-12-13T08:26:21.965Z,79.81
2018-12-13T08:27:21.953Z,78.97
2018-12-13T08:28:21.946Z,79.29
2018-12-13T08:29:21.932Z,79.36
2018-12-13T08:30:21.919Z,78.94
2018-12-13T08:31:21.912Z,78.32
2018-12-13T08:32:21.900Z,78.42
2018-12-13T08:33:21.889Z,78.32
2018-12-13T08:34:21.881Z,78.10
2018-12-13T08:35:21.870Z,78.32
2018-12-13T08:36:21.865Z,78.52
2018-12-13T08:37:21.848Z,78.32
2018-12-13T08:38:27.199Z,78.32
2018-12-13T08:39:21.855Z,78.21
2018-12-13T08:40:21.819Z,78.21
2018-12-13T08:41:21.803Z,78.32
2018-12-13T08:42:21.794Z,78.21
2018-12-13T08:43:21.783Z,78.63
2018-12-13T08:44:21.772Z,78.73
2018-12-13T08:45:21.762Z,78.52
2018-12-13T08:46:21.751Z,78.32
2018-12-13T08:47:21.740Z,78.32
2018-12-13T08:48:21.728Z,77.89
2018-12-13T08:49:21.718Z,77.89
2018-12-13T08:50:21.711Z,77.69
2018-12-13T08:51:21.702Z,77.89
2018-12-13T08:52:21.699Z,77.79
2018-12-13T08:53:21.679Z,77.48
2018-12-13T08:54:21.666Z,77.38
2018-12-13T08:55:21.656Z,77.27
2018-12-13T08:56:21.642Z,77.38
2018-12-13T08:57:21.643Z,77.79
2018-12-13T08:58:21.623Z,77.75
2018-12-13T08:59:21.613Z,77.48
2018-12-13T09:00:21.615Z,77.69
2018-12-13T09:01:21.591Z,77.55
2018-12-13T09:02:21.581Z,77.44
2018-12-13T09:03:21.575Z,77.86
2018-12-13T09:04:21.561Z,77.23
2018-12-13T09:05:21.548Z,77.23
2018-12-13T09:06:21.538Z,77.44
2018-12-13T09:07:21.527Z,77.13
2018-12-13T09:08:21.516Z,77.09
2018-12-13T09:09:21.507Z,76.57
2018-12-13T09:10:21.495Z,76.67
2018-12-13T09:11:21.483Z,76.78
2018-12-13T09:12:21.472Z,76.15
2018-12-13T09:13:21.462Z,76.15
2018-12-13T09:14:21.453Z,76.15
2018-12-13T09:15:21.441Z,76.26
2018-12-13T09:16:21.434Z,76.22
2018-12-13T09:17:21.427Z,75.91
2018-12-13T09:18:21.408Z,75.39
2018-12-13T09:19:21.402Z,75.74
2018-12-13T09:20:21.387Z,76.01
2018-12-13T09:21:21.381Z,75.29
2018-12-13T09:22:21.371Z,75.18
2018-12-13T09:23:21.356Z,74.45
2018-12-13T09:24:21.352Z,74.56
2018-12-13T09:25:21.334Z,74.45
2018-12-13T09:26:21.323Z,75.60
2018-12-13T09:27:21.310Z,74.87
2018-12-13T09:28:21.301Z,75.39
2018-12-13T09:29:21.331Z,75.70
2018-12-13T09:30:21.280Z,75.07
2018-12-13T09:31:21.268Z,75.29
2018-12-13T09:32:21.267Z,75.18
2018-12-13T09:33:21.248Z,75.39
2018-12-13T09:34:21.239Z,75.07
2018-12-13T09:35:21.230Z,74.76
2018-12-13T09:36:21.217Z,74.76
2018-12-13T09:37:21.205Z,74.56
2018-12-13T09:38:21.195Z,74.76
2018-12-13T09:39:21.192Z,74.87
2018-12-13T09:40:21.182Z,74.56
2018-12-13T09:41:21.160Z,74.66
2018-12-13T09:42:21.159Z,74.35
2018-12-13T09:43:21.140Z,74.35
2018-12-13T09:44:21.139Z,74.45
2018-12-13T09:45:21.121Z,74.10
2018-12-13T09:46:21.109Z,73.90
2018-12-13T09:47:21.096Z,74.00
2018-12-13T09:48:21.118Z,74.00
2018-12-13T09:49:21.075Z,73.30
2018-12-13T09:50:21.111Z,73.51
2018-12-13T09:51:21.053Z,73.59
2018-12-13T09:52:21.047Z,73.69
2018-12-13T09:53:21.032Z,73.90
2018-12-13T09:54:21.021Z,73.27
2018-12-13T09:55:21.012Z,73.38
2018-12-13T09:56:21.000Z,73.27
2018-12-13T09:57:20.988Z,73.41
2018-12-13T09:58:20.980Z,73.72
2018-12-13T09:59:20.967Z,73.62
2018-12-13T10:00:20.956Z,74.14
2018-12-13T10:01:20.952Z,74.14
2018-12-13T10:02:20.936Z,74.04
2018-12-13T10:03:20.924Z,73.51
2018-12-13T10:04:20.914Z,73.51
2018-12-13T10:05:20.912Z,73.41
2018-12-13T10:06:20.893Z,73.51
2018-12-13T10:07:20.881Z,73.62
2018-12-13T10:08:20.875Z,73.30
2018-12-13T10:09:20.867Z,73.62
2018-12-13T10:10:20.851Z,74.04
2018-12-13T10:11:20.863Z,74.35
2018-12-13T10:12:20.830Z,74.14
2018-12-13T10:13:20.821Z,73.51
2018-12-13T10:14:20.807Z,73.72
2018-12-13T10:15:20.798Z,73.82
2018-12-13T10:16:20.787Z,73.41
2018-12-13T10:17:20.777Z,72.99
2018-12-13T10:18:20.774Z,73.16
2018-12-13T10:19:20.756Z,73.16
2018-12-13T10:20:20.745Z,72.96
2018-12-13T10:21:20.734Z,73.06
2018-12-13T10:22:20.722Z,73.48
2018-12-13T10:23:20.711Z,73.48
2018-12-13T10:24:20.700Z,73.48
2018-12-13T10:25:20.689Z,72.72
2018-12-13T10:26:20.684Z,72.50
2018-12-13T10:27:20.670Z,72.09
2018-12-13T10:28:20.659Z,71.57
2018-12-13T10:29:20.659Z,71.57
2018-12-13T10:30:20.638Z,71.78
2018-12-13T10:31:20.625Z,72.30
2018-12-13T10:32:20.620Z,72.40
2018-12-13T10:33:20.608Z,72.30
2018-12-13T10:34:20.595Z,71.71
2018-12-13T10:35:20.582Z,72.13
2018-12-13T10:36:20.573Z,72.33
2018-12-13T10:37:20.563Z,72.72
2018-12-13T10:38:20.551Z,72.09
2018-12-13T10:39:20.540Z,72.19
2018-12-13T10:40:20.538Z,72.44
2018-12-13T10:41:20.520Z,72.13
2018-12-13T10:42:20.508Z,71.81
2018-12-13T10:43:20.510Z,71.78
2018-12-13T10:44:20.487Z,71.36
2018-12-13T10:45:20.473Z,71.36
2018-12-13T10:46:20.466Z,70.84
2018-12-13T10:47:20.453Z,70.73
2018-12-13T10:48:20.443Z,70.94
2018-12-13T10:49:20.431Z,70.11
2018-12-13T10:50:20.423Z,69.70
2018-12-13T10:51:20.412Z,69.94
2018-12-13T10:52:20.400Z,70.14
2018-12-13T10:53:20.390Z,70.25
2018-12-13T10:54:20.380Z,70.66
2018-12-13T10:55:20.366Z,70.45
2018-12-13T10:56:20.362Z,69.80
2018-12-13T10:57:20.347Z,70.01
2018-12-13T10:58:20.339Z,70.84
2018-12-13T10:59:20.337Z,70.42
2018-12-13T11:00:20.315Z,70.53
2018-12-13T11:01:20.306Z,69.62
2018-12-13T11:02:20.292Z,69.94
2018-12-13T11:03:20.284Z,69.62
2018-12-13T11:04:20.281Z,69.62
2018-12-13T11:05:20.260Z,69.52
2018-12-13T11:06:20.249Z,69.83
2018-12-13T11:07:20.239Z,70.25
2018-12-13T11:08:20.270Z,70.35
2018-12-13T11:09:20.216Z,70.14
2018-12-13T11:10:25.371Z,69.83
2018-12-13T11:11:20.195Z,69.80
2018-12-13T11:12:20.186Z,69.90
2018-12-13T11:13:20.175Z,70.22
2018-12-13T11:14:20.165Z,70.11
2018-12-13T11:15:20.153Z,70.32
2018-12-13T11:16:20.145Z,69.70
2018-12-13T11:17:20.132Z,69.48
2018-12-13T11:18:20.120Z,69.28
2018-12-13T11:19:20.109Z,68.86
2018-12-13T11:20:20.099Z,68.55
2018-12-13T11:21:20.103Z,69.07
2018-12-13T11:22:20.080Z,69.90
2018-12-13T11:23:20.067Z,69.07
2018-12-13T11:24:20.058Z,69.28
2018-12-13T11:25:20.051Z,69.07
2018-12-13T11:26:20.036Z,69.17
2018-12-13T11:27:20.025Z,69.04
2018-12-13T11:28:20.017Z,68.20
2018-12-13T11:29:20.001Z,68.31
2018-12-13T11:30:19.992Z,68.62
2018-12-13T11:31:19.983Z,67.86
2018-12-13T11:32:19.970Z,67.48
2018-12-13T11:33:19.961Z,67.68
2018-12-13T11:34:19.949Z,67.76
2018-12-13T11:35:19.938Z,68.17
2018-12-13T11:36:19.927Z,67.86
2018-12-13T11:37:19.916Z,67.13
2018-12-13T11:38:19.908Z,67.24
2018-12-13T11:39:19.894Z,66.40
2018-12-13T11:40:19.886Z,66.65
2018-12-13T11:41:19.875Z,67.48
2018-12-13T11:42:19.864Z,68.07
2018-12-13T11:43:19.852Z,67.34
2018-12-13T11:44:19.840Z,67.55
2018-12-13T11:45:19.831Z,67.13
2018-12-13T11:46:19.822Z,67.34
2018-12-13T11:47:19.814Z,68.38
2018-12-13T11:48:19.800Z,68.04
2018-12-13T11:49:19.794Z,67.21
2018-12-13T11:50:19.779Z,67.55
2018-12-13T11:51:19.769Z,67.96
2018-12-13T11:52:19.757Z,67.13
2018-12-13T11:53:19.747Z,67.24
2018-12-13T11:54:19.735Z,66.58
2018-12-13T11:55:19.726Z,65.99
2018-12-13T11:56:19.716Z,66.61
2018-12-13T11:57:19.703Z,66.33
2018-12-13T11:58:19.701Z,66.12
2018-12-13T11:59:19.682Z,66.78
2018-12-13T12:00:19.671Z,67.30
2018-12-13T12:01:19.659Z,67.79
2018-12-13T12:02:24.033Z,67.58
2018-12-13T12:03:19.637Z,67.68
2018-12-13T12:04:19.628Z,67.27
2018-12-13T12:05:19.617Z,67.48
2018-12-13T12:06:19.606Z,66.22
2018-12-13T12:07:19.597Z,65.81
2018-12-13T12:08:19.584Z,65.50
2018-12-13T12:09:19.574Z,65.71
2018-12-13T12:10:19.563Z,65.81
2018-12-13T12:11:19.551Z,65.71
2018-12-13T12:12:19.541Z,66.33
2018-12-13T12:13:19.531Z,66.65
2018-12-13T12:14:19.520Z,66.12
2018-12-13T12:15:19.511Z,66.12
2018-12-13T12:16:19.499Z,65.81
2018-12-13T12:17:19.489Z,65.81
2018-12-13T12:18:19.500Z,65.71
2018-12-13T12:19:19.467Z,65.81
2018-12-13T12:20:19.455Z,65.81
2018-12-13T12:21:19.839Z,65.81
2018-12-13T12:22:19.435Z,65.67
2018-12-13T12:23:19.473Z,66.09
2018-12-13T12:24:19.417Z,66.19
2018-12-13T12:25:19.408Z,65.88
2018-12-13T12:26:19.391Z,65.99
2018-12-13T12:27:19.382Z,65.50
2018-12-13T12:28:19.371Z,65.91
2018-12-13T12:29:19.362Z,65.50
2018-12-13T12:30:19.350Z,64.98
2018-12-13T12:31:19.338Z,64.98
2018-12-13T12:32:19.398Z,65.26
2018-12-13T12:33:19.316Z,65.05
2018-12-13T12:34:19.307Z,65.05
2018-12-13T12:35:19.305Z,65.05
2018-12-13T12:36:19.284Z,65.36
2018-12-13T12:37:19.276Z,65.36
2018-12-13T12:38:19.262Z,65.78
2018-12-13T12:39:19.259Z,64.63
2018-12-13T12:40:19.242Z,65.57
2018-12-13T12:41:19.230Z,65.26
2018-12-13T12:42:19.221Z,65.57
2018-12-13T12:43:19.235Z,65.05
2018-12-13T12:44:19.200Z,64.32
2018-12-13T12:45:19.190Z,64.63
2018-12-13T12:46:19.178Z,64.63
2018-12-13T12:47:19.168Z,64.63
2018-12-13T12:48:19.154Z,65.36
2018-12-13T12:49:19.145Z,64.63
2018-12-13T12:50:19.132Z,64.11
2018-12-13T12:51:19.140Z,63.90
2018-12-13T12:52:19.113Z,63.59
2018-12-13T12:53:19.106Z,63.90
2018-12-13T12:54:19.093Z,64.22
2018-12-13T12:55:19.081Z,64.53
2018-12-13T12:56:19.069Z,64.11
2018-12-13T12:57:19.062Z,64.11
2018-12-13T12:58:19.048Z,63.70
2018-12-13T12:59:19.040Z,63.70
2018-12-13T13:00:19.027Z,63.59
2018-12-13T13:01:19.016Z,63.36
2018-12-13T13:02:19.004Z,64.01
2018-12-13T13:03:18.994Z,64.53
2018-12-13T13:04:19.086Z,64.42
2018-12-13T13:05:18.979Z,65.26
2018-12-13T13:06:18.967Z,65.02
2018-12-13T13:07:18.952Z,64.92
2018-12-13T13:08:18.942Z,64.61
2018-12-13T13:09:24.816Z,63.98
2018-12-13T13:10:19.939Z,64.71
2018-12-13T13:11:18.913Z,64.61
2018-12-13T13:12:18.899Z,63.36
2018-12-13T13:13:18.892Z,62.63
2018-12-13T13:14:18.876Z,62.84
2018-12-13T13:15:18.867Z,63.36
2018-12-13T13:16:18.856Z,63.46
2018-12-13T13:17:18.846Z,63.36
2018-12-13T13:18:18.834Z,63.56
2018-12-13T13:19:18.822Z,63.67
2018-12-13T13:20:18.814Z,63.46
2018-12-13T13:21:18.801Z,62.97
2018-12-13T13:22:18.792Z,63.39
2018-12-13T13:23:18.781Z,64.42
2018-12-13T13:24:18.769Z,64.11
2018-12-13T13:25:18.760Z,63.49
2018-12-13T13:26:18.762Z,63.70
2018-12-13T13:27:18.738Z,63.80
2018-12-13T13:28:18.728Z,63.70
2018-12-13T13:29:18.716Z,63.70
2018-12-13T13:30:18.708Z,64.11
2018-12-13T13:31:18.694Z,64.42
2018-12-13T13:32:18.685Z,64.42
2018-12-13T13:33:18.680Z,63.46
2018-12-13T13:34:18.671Z,63.25
2018-12-13T13:35:18.666Z,63.25
2018-12-13T13:36:18.643Z,63.46
2018-12-13T13:37:18.632Z,62.73
2018-12-13T13:38:18.622Z,63.04
2018-12-13T13:39:18.609Z,63.46
2018-12-13T13:40:18.599Z,64.08
2018-12-13T13:41:18.589Z,63.15
2018-12-13T13:42:18.578Z,63.04
2018-12-13T13:43:18.566Z,63.15
2018-12-13T13:44:18.558Z,63.67
2018-12-13T13:45:18.545Z,63.15
2018-12-13T13:46:18.545Z,63.25
2018-12-13T13:47:18.523Z,62.84
2018-12-13T13:48:18.513Z,63.15
2018-12-13T13:49:18.502Z,62.84
2018-12-13T13:50:18.492Z,63.25
2018-12-13T13:51:18.479Z,63.46
2018-12-13T13:52:18.473Z,63.36
2018-12-13T13:53:18.464Z,62.73
2018-12-13T13:54:18.454Z,62.84
2018-12-13T13:55:18.438Z,63.36
2018-12-13T13:56:18.429Z,62.84
2018-12-13T13:57:18.419Z,63.15
2018-12-13T13:58:18.406Z,62.84
2018-12-13T13:59:18.396Z,63.15
2018-12-13T14:00:18.388Z,63.77
2018-12-13T14:01:18.381Z,64.19
2018-12-13T14:02:18.365Z,64.61
2018-12-13T14:03:18.351Z,64.71
2018-12-13T14:04:18.341Z,64.92
2018-12-13T14:05:18.329Z,64.40
2018-12-13T14:06:18.321Z,63.15
2018-12-13T14:07:18.313Z,61.90
2018-12-13T14:08:18.298Z,62.00
2018-12-13T14:09:18.291Z,62.00
2018-12-13T14:10:18.281Z,62.00
2018-12-13T14:11:18.267Z,61.79
2018-12-13T14:12:18.256Z,62.10
2018-12-13T14:13:18.245Z,62.21
2018-12-13T14:14:18.234Z,61.69
2018-12-13T14:15:18.223Z,62.10
2018-12-13T14:16:18.214Z,62.21
2018-12-13T14:17:18.202Z,61.90
2018-12-13T14:18:18.198Z,62.42
2018-12-13T14:19:18.181Z,62.21
2018-12-13T14:20:18.178Z,62.63
2018-12-13T14:21:18.158Z,62.10
2018-12-13T14:22:18.148Z,62.42
2018-12-13T14:23:18.139Z,62.32
2018-12-13T14:24:18.128Z,62.76
2018-12-13T14:25:18.118Z,62.13
2018-12-13T14:26:18.110Z,62.10
2018-12-13T14:27:18.098Z,62.10